Aviation Digital Data Service (ADDS)

Output produced by METARs form (0558 UTC 20 October 2018)
found at http://www.aviationweather.gov/metar/data/
 
DGAA 200500Z 27006KT CAVOK 25/25 Q1009 NOSIG
TAF DGAA 200500Z 2006/2112 27010KT 9999 BKN014 
     BECMG 2011/2013 18015KT FEW020 
     TEMPO 2015/2019 SCT025CB 
     BECMG 2023/2101 26005KT CAVOK